createdAt,value
2022-12-03T00:00:58.260Z,2.10
2022-12-03T00:03:37.261Z,2.10
2022-12-03T00:06:19.626Z,2.10
2022-12-03T00:09:03.526Z,2.10
2022-12-03T00:11:36.290Z,2.10
2022-12-03T00:14:21.615Z,2.10
2022-12-03T00:16:50.902Z,2.10
2022-12-03T00:19:20.641Z,2.10
2022-12-03T00:21:59.299Z,2.10
2022-12-03T00:24:49.852Z,2.10
2022-12-03T00:27:24.159Z,2.10
2022-12-03T00:29:54.278Z,2.10
2022-12-03T00:32:25.653Z,2.10
2022-12-03T00:35:05.742Z,2.10
2022-12-03T00:37:35.888Z,2.10
2022-12-03T00:40:17.626Z,2.10
2022-12-03T00:42:51.562Z,2.10
2022-12-03T00:45:23.819Z,2.10
2022-12-03T00:47:55.058Z,2.10
2022-12-03T00:50:31.385Z,2.10
2022-12-03T00:53:04.417Z,2.10
2022-12-03T00:55:39.491Z,2.10
2022-12-03T00:58:16.669Z,2.10
2022-12-03T01:00:57.494Z,2.10
2022-12-03T01:03:31.513Z,2.10
2022-12-03T01:06:04.743Z,2.10
2022-12-03T01:08:39.407Z,2.10
2022-12-03T01:11:30.704Z,2.10
2022-12-03T01:14:03.312Z,2.10
2022-12-03T01:16:33.737Z,2.10
2022-12-03T01:19:03.810Z,2.10
2022-12-03T01:21:37.545Z,2.10
2022-12-03T01:24:10.705Z,2.10
2022-12-03T01:26:41.664Z,2.10
2022-12-03T01:29:16.833Z,2.10
2022-12-03T01:32:03.132Z,2.10
2022-12-03T01:34:32.899Z,2.10
2022-12-03T01:37:02.577Z,2.10
2022-12-03T01:39:35.321Z,2.10
2022-12-03T01:42:08.711Z,2.10
2022-12-03T01:44:41.140Z,2.10
2022-12-03T01:47:16.345Z,2.10
2022-12-03T01:49:48.629Z,2.10
2022-12-03T01:52:19.999Z,2.10
2022-12-03T01:54:51.605Z,2.10
2022-12-03T01:57:25.820Z,2.10
2022-12-03T01:59:58.773Z,2.10
2022-12-03T02:02:30.808Z,2.00
2022-12-03T02:05:00.307Z,2.10
2022-12-03T02:07:30.621Z,2.10
2022-12-03T02:10:02.177Z,2.10
2022-12-03T02:12:37.098Z,2.00
2022-12-03T02:15:07.556Z,2.00
2022-12-03T02:17:36.902Z,2.00
2022-12-03T02:20:09.457Z,2.00
2022-12-03T02:22:47.522Z,2.00
2022-12-03T02:25:22.658Z,2.00
2022-12-03T02:27:52.168Z,2.00
2022-12-03T02:30:22.865Z,2.00
2022-12-03T02:32:52.137Z,2.00
2022-12-03T02:35:22.682Z,2.00
2022-12-03T02:37:53.403Z,2.00
2022-12-03T02:40:26.155Z,2.10
2022-12-03T02:42:58.858Z,2.10
2022-12-03T02:45:38.303Z,2.00
2022-12-03T02:48:10.463Z,2.00
2022-12-03T02:50:42.224Z,2.00
2022-12-03T02:53:17.481Z,2.10
2022-12-03T02:55:48.645Z,2.00
2022-12-03T02:58:18.037Z,2.00
2022-12-03T03:00:49.520Z,2.00
2022-12-03T03:03:20.120Z,2.10
2022-12-03T03:05:50.049Z,2.00
2022-12-03T03:08:19.923Z,2.00
2022-12-03T03:10:50.860Z,2.00
2022-12-03T03:13:21.123Z,2.00
2022-12-03T03:15:50.318Z,2.00
2022-12-03T03:18:19.967Z,2.00
2022-12-03T03:20:48.449Z,2.00
2022-12-03T03:23:19.030Z,2.00
2022-12-03T03:25:51.268Z,2.00
2022-12-03T03:28:20.997Z,2.00
2022-12-03T03:30:49.852Z,2.00
2022-12-03T03:33:18.871Z,2.00
2022-12-03T03:35:49.239Z,2.00
2022-12-03T03:38:20.581Z,2.00
2022-12-03T03:40:52.033Z,2.00
2022-12-03T03:43:36.809Z,2.00
2022-12-03T03:46:07.034Z,2.00
2022-12-03T03:48:37.936Z,2.00
2022-12-03T03:51:09.752Z,2.00
2022-12-03T03:53:39.837Z,2.00
2022-12-03T03:56:10.875Z,2.00
2022-12-03T03:58:39.960Z,2.00
2022-12-03T04:01:11.296Z,2.00
2022-12-03T04:03:40.620Z,2.00
2022-12-03T04:06:09.953Z,2.00
2022-12-03T04:08:38.765Z,1.90
2022-12-03T04:11:25.299Z,1.90
2022-12-03T04:13:57.045Z,1.90
2022-12-03T04:16:27.117Z,1.90
2022-12-03T04:18:56.860Z,1.90
2022-12-03T04:21:43.593Z,1.90
2022-12-03T04:24:12.899Z,1.90
2022-12-03T04:26:59.276Z,1.90
2022-12-03T04:29:29.154Z,1.90
2022-12-03T04:32:17.397Z,1.90
2022-12-03T04:35:03.799Z,1.90
2022-12-03T04:37:32.325Z,1.90
2022-12-03T04:40:00.757Z,1.80
2022-12-03T04:42:29.420Z,1.80
2022-12-03T04:44:59.659Z,1.80
2022-12-03T04:47:28.278Z,1.80
2022-12-03T04:49:56.759Z,1.80
2022-12-03T04:52:25.221Z,1.80
2022-12-03T04:54:53.936Z,1.80
2022-12-03T04:57:22.683Z,1.80
2022-12-03T04:59:52.627Z,1.80
2022-12-03T05:02:22.527Z,1.80
2022-12-03T05:04:51.226Z,1.80
2022-12-03T05:07:19.836Z,1.80
2022-12-03T05:09:48.823Z,1.80
2022-12-03T05:12:17.318Z,1.80
2022-12-03T05:14:45.780Z,1.80
2022-12-03T05:17:14.318Z,1.80
2022-12-03T05:20:01.787Z,1.80
2022-12-03T05:22:31.173Z,1.80
2022-12-03T05:25:01.369Z,1.80
2022-12-03T05:27:29.900Z,1.80
2022-12-03T05:29:58.363Z,1.80
2022-12-03T05:32:27.102Z,1.70
2022-12-03T05:34:57.380Z,1.70
2022-12-03T05:37:25.865Z,1.70
2022-12-03T05:39:54.313Z,1.70
2022-12-03T05:42:40.627Z,1.70
2022-12-03T05:45:09.963Z,1.70
2022-12-03T05:47:38.371Z,1.70
2022-12-03T05:50:09.883Z,1.70
2022-12-03T05:52:38.694Z,1.70
2022-12-03T05:55:07.929Z,1.70
2022-12-03T05:57:36.734Z,1.70
2022-12-03T06:00:07.341Z,1.70
2022-12-03T06:02:36.645Z,1.70
2022-12-03T06:05:05.519Z,1.70
2022-12-03T06:07:35.840Z,1.80
2022-12-03T06:10:05.709Z,1.70
2022-12-03T06:12:34.182Z,1.70
2022-12-03T06:15:02.858Z,1.60
2022-12-03T06:17:31.918Z,1.70
2022-12-03T06:20:00.538Z,1.70
2022-12-03T06:22:29.365Z,1.60
2022-12-03T06:25:05.053Z,1.60
2022-12-03T06:27:36.015Z,1.50
2022-12-03T06:30:06.008Z,1.50
2022-12-03T06:32:34.661Z,1.50
2022-12-03T06:35:03.802Z,1.50
2022-12-03T06:37:32.607Z,1.50
2022-12-03T06:40:02.698Z,1.50
2022-12-03T06:42:31.549Z,1.50
2022-12-03T06:45:00.508Z,1.40
2022-12-03T06:47:29.088Z,1.40
2022-12-03T06:49:57.990Z,1.40
2022-12-03T06:52:26.732Z,1.40
2022-12-03T06:54:55.590Z,1.40
2022-12-03T06:57:25.851Z,1.40
2022-12-03T06:59:55.024Z,1.40
2022-12-03T07:02:24.705Z,1.40
2022-12-03T07:04:54.496Z,1.40
2022-12-03T07:07:23.600Z,1.40
2022-12-03T07:09:52.522Z,1.40
2022-12-03T07:12:21.064Z,1.30
2022-12-03T07:14:51.731Z,1.30
2022-12-03T07:17:20.591Z,1.30
2022-12-03T07:19:49.293Z,1.30
2022-12-03T07:22:18.055Z,1.40
2022-12-03T07:24:47.109Z,1.40
2022-12-03T07:27:15.914Z,1.40
2022-12-03T07:29:44.802Z,1.40
2022-12-03T07:32:15.125Z,1.40
2022-12-03T07:34:44.342Z,1.40
2022-12-03T07:37:12.953Z,1.40
2022-12-03T07:39:41.799Z,1.40
2022-12-03T07:42:11.196Z,1.40
2022-12-03T07:44:40.086Z,1.30
2022-12-03T07:47:09.461Z,1.30
2022-12-03T07:49:39.825Z,1.40
2022-12-03T07:52:08.764Z,1.40
2022-12-03T07:54:37.787Z,1.40
2022-12-03T07:57:09.376Z,1.40
2022-12-03T07:59:38.709Z,1.40
2022-12-03T08:02:07.974Z,1.40
2022-12-03T08:04:37.420Z,1.40
2022-12-03T08:07:07.808Z,1.40
2022-12-03T08:09:37.181Z,1.40
2022-12-03T08:12:17.973Z,1.40
2022-12-03T08:14:46.689Z,1.50
2022-12-03T08:17:18.465Z,1.50
2022-12-03T08:19:51.444Z,1.50
2022-12-03T08:22:22.516Z,1.50
2022-12-03T08:24:57.244Z,1.50
2022-12-03T08:27:26.439Z,1.40
2022-12-03T08:30:08.970Z,1.50
2022-12-03T08:32:38.159Z,1.40
2022-12-03T08:35:16.903Z,1.40
2022-12-03T08:37:47.910Z,1.40
2022-12-03T08:40:23.431Z,1.40
2022-12-03T08:42:55.056Z,1.40
2022-12-03T08:45:45.641Z,1.40
2022-12-03T08:48:34.078Z,1.50
2022-12-03T08:51:13.129Z,1.50
2022-12-03T08:54:01.539Z,1.40
2022-12-03T08:56:37.076Z,1.40
2022-12-03T08:59:30.171Z,1.50
2022-12-03T09:02:00.823Z,1.50
2022-12-03T09:04:37.472Z,1.50
2022-12-03T09:07:06.999Z,1.50
2022-12-03T09:09:37.433Z,1.50
2022-12-03T09:12:08.401Z,1.50
2022-12-03T09:14:37.253Z,1.50
2022-12-03T09:17:13.651Z,1.50
2022-12-03T09:19:46.568Z,1.50
2022-12-03T09:22:18.583Z,1.60
2022-12-03T09:24:49.549Z,1.60
2022-12-03T09:27:22.684Z,1.60
2022-12-03T09:29:52.218Z,1.60
2022-12-03T09:32:25.374Z,1.50
2022-12-03T09:35:06.698Z,1.50
2022-12-03T09:37:43.030Z,1.50
2022-12-03T09:40:16.318Z,1.60
2022-12-03T09:42:46.422Z,1.60
2022-12-03T09:45:17.032Z,1.60
2022-12-03T09:47:49.509Z,1.50
2022-12-03T09:50:39.780Z,1.50
2022-12-03T09:53:14.986Z,1.60
2022-12-03T09:55:47.249Z,1.50
2022-12-03T09:58:19.724Z,1.60
2022-12-03T10:00:53.744Z,1.60
2022-12-03T10:03:29.854Z,1.50
2022-12-03T10:06:01.100Z,1.50
2022-12-03T10:08:32.502Z,1.50
2022-12-03T10:11:09.659Z,1.60
2022-12-03T10:13:49.561Z,1.50
2022-12-03T10:16:46.870Z,1.60
2022-12-03T10:19:32.034Z,1.60
2022-12-03T10:22:12.512Z,1.50
2022-12-03T10:24:48.855Z,1.50
2022-12-03T10:27:35.727Z,1.50
2022-12-03T10:30:22.620Z,1.50
2022-12-03T10:33:06.620Z,1.60
2022-12-03T10:35:43.942Z,1.60
2022-12-03T10:38:31.678Z,1.60
2022-12-03T10:41:34.879Z,1.60
2022-12-03T10:44:28.889Z,1.60
2022-12-03T10:47:13.067Z,1.60
2022-12-03T10:49:51.864Z,1.60
2022-12-03T10:52:26.105Z,1.70
2022-12-03T10:55:11.065Z,1.60
2022-12-03T10:57:51.887Z,1.70
2022-12-03T11:00:36.119Z,1.70
2022-12-03T11:03:21.522Z,1.80
2022-12-03T11:06:01.920Z,1.90
2022-12-03T11:08:36.138Z,1.90
2022-12-03T11:11:16.780Z,1.90
2022-12-03T11:14:23.171Z,1.90
2022-12-03T11:17:44.482Z,1.90
2022-12-03T11:21:06.807Z,1.90
2022-12-03T11:24:06.543Z,2.00
2022-12-03T11:27:15.884Z,2.00
2022-12-03T11:30:07.878Z,2.00
2022-12-03T11:33:19.151Z,2.00
2022-12-03T11:36:31.960Z,2.00
2022-12-03T11:39:20.320Z,1.90
2022-12-03T11:42:49.791Z,1.90
2022-12-03T11:45:44.712Z,1.90
2022-12-03T11:48:26.345Z,1.90
2022-12-03T11:51:07.284Z,1.90
2022-12-03T11:53:42.574Z,1.90
2022-12-03T11:56:24.176Z,1.90
2022-12-03T11:59:04.261Z,2.00
2022-12-03T12:01:45.325Z,2.00
2022-12-03T12:04:39.459Z,2.00
2022-12-03T12:07:14.454Z,1.90
2022-12-03T12:10:00.901Z,1.90
2022-12-03T12:12:40.428Z,1.90
2022-12-03T12:15:59.558Z,2.00
2022-12-03T12:18:57.327Z,2.00
2022-12-03T12:21:52.126Z,2.00
2022-12-03T12:24:44.691Z,1.90
2022-12-03T12:27:36.887Z,1.90
2022-12-03T12:30:34.653Z,1.90
2022-12-03T12:33:23.635Z,1.90
2022-12-03T12:36:02.082Z,1.90
2022-12-03T12:38:38.164Z,1.90
2022-12-03T12:41:25.582Z,1.90
2022-12-03T12:44:16.940Z,1.90
2022-12-03T12:46:59.258Z,1.90
2022-12-03T12:49:36.247Z,1.90
2022-12-03T12:52:18.499Z,2.00
2022-12-03T12:54:49.222Z,1.90
2022-12-03T12:57:27.235Z,1.90
2022-12-03T13:00:01.635Z,1.90
2022-12-03T13:02:54.002Z,1.80
2022-12-03T13:05:36.795Z,1.80
2022-12-03T13:08:26.037Z,1.80
2022-12-03T13:11:08.114Z,1.90
2022-12-03T13:13:56.198Z,1.90
2022-12-03T13:16:38.604Z,1.80
2022-12-03T13:19:47.366Z,1.80
2022-12-03T13:22:27.484Z,1.80
2022-12-03T13:25:09.370Z,1.90
2022-12-03T13:27:46.666Z,1.80
2022-12-03T13:30:34.179Z,1.80
2022-12-03T13:33:21.302Z,1.80
2022-12-03T13:36:00.037Z,1.80
2022-12-03T13:38:31.792Z,1.80
2022-12-03T13:41:34.270Z,1.70
2022-12-03T13:58:24.734Z,2.40
2022-12-03T14:01:03.190Z,1.70
2022-12-03T14:09:38.228Z,1.80
2022-12-03T14:12:34.415Z,1.70
2022-12-03T14:26:16.533Z,1.60
2022-12-03T14:29:27.368Z,1.60
2022-12-03T14:38:12.850Z,1.60
2022-12-03T14:41:00.198Z,1.60
2022-12-03T14:43:54.707Z,1.60
2022-12-03T14:54:56.410Z,1.60
2022-12-03T14:57:28.830Z,1.60
2022-12-03T15:03:42.712Z,1.50
2022-12-03T15:06:48.840Z,1.50
2022-12-03T15:09:34.130Z,1.50
2022-12-03T15:12:16.936Z,1.50
2022-12-03T15:15:33.763Z,1.50
2022-12-03T15:18:13.712Z,1.60
2022-12-03T15:20:47.845Z,1.50
2022-12-03T15:23:32.049Z,1.50
2022-12-03T15:26:14.777Z,1.50
2022-12-03T15:29:07.090Z,1.50
2022-12-03T15:31:44.783Z,1.50
2022-12-03T15:34:22.751Z,1.50
2022-12-03T15:36:59.825Z,1.50
2022-12-03T15:39:34.734Z,1.50
2022-12-03T15:42:18.405Z,1.50
2022-12-03T15:44:52.348Z,1.50
2022-12-03T15:47:49.976Z,1.50
2022-12-03T15:50:28.433Z,1.50
2022-12-03T15:53:00.028Z,1.50
2022-12-03T15:55:32.704Z,1.50
2022-12-03T15:58:06.149Z,1.50
2022-12-03T16:00:42.617Z,1.50
2022-12-03T16:03:21.669Z,1.40
2022-12-03T16:05:51.835Z,1.50
2022-12-03T16:08:28.208Z,1.40
2022-12-03T16:11:10.043Z,1.40
2022-12-03T16:13:53.703Z,1.40
2022-12-03T16:16:32.716Z,1.40
2022-12-03T16:19:13.243Z,1.50
2022-12-03T16:21:43.788Z,1.40
2022-12-03T16:24:13.600Z,1.40
2022-12-03T16:26:43.829Z,1.50
2022-12-03T16:29:28.878Z,1.40
2022-12-03T16:32:08.780Z,1.50
2022-12-03T16:34:47.280Z,1.40
2022-12-03T16:37:28.777Z,1.40
2022-12-03T16:39:59.757Z,1.40
2022-12-03T16:42:39.196Z,1.40
2022-12-03T16:45:35.454Z,1.40
2022-12-03T16:48:08.779Z,1.40
2022-12-03T16:51:01.553Z,1.40
2022-12-03T16:53:33.310Z,1.40
2022-12-03T16:56:16.863Z,1.40
2022-12-03T16:58:51.130Z,1.40
2022-12-03T17:01:36.522Z,1.40
2022-12-03T17:04:09.299Z,1.40
2022-12-03T17:06:50.048Z,1.40
2022-12-03T17:09:37.456Z,1.40
2022-12-03T17:12:20.837Z,1.40
2022-12-03T17:14:54.844Z,1.30
2022-12-03T17:17:34.870Z,1.30
2022-12-03T17:20:06.602Z,1.30
2022-12-03T17:22:38.955Z,1.30
2022-12-03T17:25:14.797Z,1.30
2022-12-03T17:27:48.727Z,1.30
2022-12-03T17:30:18.759Z,1.30
2022-12-03T17:32:54.763Z,1.30
2022-12-03T17:35:28.887Z,1.30
2022-12-03T17:38:06.896Z,1.30
2022-12-03T17:40:36.853Z,1.30
2022-12-03T17:43:05.754Z,1.30
2022-12-03T17:45:39.715Z,1.30
2022-12-03T17:48:09.813Z,1.30
2022-12-03T17:50:40.815Z,1.30
2022-12-03T17:53:16.207Z,1.30
2022-12-03T17:55:47.333Z,1.20
2022-12-03T17:58:19.712Z,1.20
2022-12-03T18:00:57.297Z,1.20
2022-12-03T18:03:41.362Z,1.20
2022-12-03T18:06:15.615Z,1.20
2022-12-03T18:08:52.486Z,1.20
2022-12-03T18:11:26.501Z,1.20
2022-12-03T18:13:55.484Z,1.20
2022-12-03T18:16:28.598Z,1.20
2022-12-03T18:19:06.289Z,1.20
2022-12-03T18:21:37.374Z,1.20
2022-12-03T18:24:11.187Z,1.20
2022-12-03T18:26:42.086Z,1.20
2022-12-03T18:29:16.550Z,1.20
2022-12-03T18:31:48.701Z,1.20
2022-12-03T18:34:32.565Z,1.20
2022-12-03T18:37:07.288Z,1.20
2022-12-03T18:39:41.848Z,1.10
2022-12-03T18:42:18.900Z,1.20
2022-12-03T18:44:51.725Z,1.20
2022-12-03T18:47:32.500Z,1.20
2022-12-03T18:50:10.127Z,1.20
2022-12-03T18:52:51.101Z,1.10
2022-12-03T18:55:34.842Z,1.10
2022-12-03T18:58:11.781Z,1.10
2022-12-03T19:00:48.439Z,1.20
2022-12-03T19:03:21.480Z,1.10
2022-12-03T19:05:51.837Z,1.10
2022-12-03T19:08:22.238Z,1.10
2022-12-03T19:10:59.690Z,1.10
2022-12-03T19:13:32.345Z,1.10
2022-12-03T19:16:05.554Z,1.10
2022-12-03T19:18:56.139Z,1.10
2022-12-03T19:21:28.294Z,1.10
2022-12-03T19:24:23.180Z,1.10
2022-12-03T19:26:58.921Z,1.00
2022-12-03T19:29:28.073Z,1.00
2022-12-03T19:32:00.306Z,1.00
2022-12-03T19:34:29.250Z,1.00
2022-12-03T19:37:01.782Z,1.00
2022-12-03T19:39:33.712Z,1.10
2022-12-03T19:42:04.461Z,1.10
2022-12-03T19:44:33.411Z,1.10
2022-12-03T19:47:07.862Z,1.10
2022-12-03T19:49:45.679Z,1.10
2022-12-03T19:52:22.909Z,1.00
2022-12-03T19:54:53.193Z,1.00
2022-12-03T19:57:31.133Z,1.10
2022-12-03T20:00:07.562Z,1.10
2022-12-03T20:02:43.547Z,1.10
2022-12-03T20:05:15.596Z,1.00
2022-12-03T20:07:47.832Z,1.00
2022-12-03T20:10:17.393Z,1.00
2022-12-03T20:12:48.158Z,1.00
2022-12-03T20:15:19.510Z,1.00
2022-12-03T20:17:55.938Z,1.00
2022-12-03T20:20:28.281Z,1.00
2022-12-03T20:23:09.837Z,1.00
2022-12-03T20:25:40.303Z,1.00
2022-12-03T20:28:19.254Z,0.90
2022-12-03T20:31:07.225Z,1.00
2022-12-03T20:33:42.250Z,1.00
2022-12-03T20:36:32.768Z,1.00
2022-12-03T20:39:10.213Z,1.00
2022-12-03T20:41:44.546Z,0.90
2022-12-03T20:44:30.854Z,1.00
2022-12-03T20:47:06.494Z,0.90
2022-12-03T20:49:43.768Z,0.90
2022-12-03T20:52:18.030Z,0.90
2022-12-03T20:54:54.384Z,0.90
2022-12-03T20:57:25.061Z,0.90
2022-12-03T21:00:03.490Z,0.90
2022-12-03T21:02:36.530Z,0.90
2022-12-03T21:05:12.286Z,1.00
2022-12-03T21:07:53.828Z,0.90
2022-12-03T21:10:39.310Z,0.90
2022-12-03T21:13:13.770Z,0.90
2022-12-03T21:15:58.508Z,0.90
2022-12-03T21:18:33.698Z,0.90
2022-12-03T21:21:10.097Z,0.90
2022-12-03T21:23:39.978Z,0.90
2022-12-03T21:26:20.673Z,0.80
2022-12-03T21:28:52.313Z,0.80
2022-12-03T21:31:27.429Z,0.90
2022-12-03T21:34:06.697Z,0.90
2022-12-03T21:36:37.649Z,0.90
2022-12-03T21:39:08.202Z,0.90
2022-12-03T21:42:18.775Z,0.90
2022-12-03T21:44:27.310Z,0.90
2022-12-03T21:47:10.837Z,0.90
2022-12-03T21:49:50.407Z,0.90
2022-12-03T21:52:21.708Z,0.90
2022-12-03T21:54:59.751Z,0.90
2022-12-03T21:57:38.930Z,0.90
2022-12-03T22:00:16.506Z,0.90
2022-12-03T22:03:01.780Z,0.90
2022-12-03T22:05:44.280Z,0.90
2022-12-03T22:08:16.087Z,0.90
2022-12-03T22:10:48.199Z,0.90
2022-12-03T22:13:18.665Z,0.90
2022-12-03T22:19:44.057Z,0.90
2022-12-03T22:22:20.663Z,0.90
2022-12-03T22:24:49.782Z,0.90
2022-12-03T22:27:19.563Z,0.90
2022-12-03T22:29:48.569Z,0.90
2022-12-03T22:32:24.173Z,0.90
2022-12-03T22:34:54.367Z,0.90
2022-12-03T22:37:27.830Z,0.90
2022-12-03T22:40:02.550Z,0.90
2022-12-03T22:42:31.744Z,0.90
2022-12-03T22:45:04.045Z,0.90
2022-12-03T22:47:38.218Z,0.90
2022-12-03T22:50:10.382Z,0.90
2022-12-03T22:52:42.033Z,0.90
2022-12-03T22:55:15.945Z,0.90
2022-12-03T22:57:58.696Z,0.90
2022-12-03T23:00:51.604Z,0.90
2022-12-03T23:03:28.025Z,0.90
2022-12-03T23:06:15.935Z,0.80
2022-12-03T23:08:46.595Z,0.90
2022-12-03T23:11:27.977Z,0.90
2022-12-03T23:14:00.011Z,0.80
2022-12-03T23:16:39.934Z,0.80
2022-12-03T23:19:11.881Z,0.90
2022-12-03T23:21:43.433Z,0.80
2022-12-03T23:24:12.605Z,0.90
2022-12-03T23:26:46.389Z,0.90
2022-12-03T23:29:17.586Z,0.90
2022-12-03T23:31:48.102Z,0.90
2022-12-03T23:34:19.914Z,0.90
2022-12-03T23:36:51.518Z,0.90
2022-12-03T23:39:25.839Z,0.90
2022-12-03T23:42:03.746Z,0.90
2022-12-03T23:44:32.844Z,0.90
2022-12-03T23:47:02.561Z,0.90
2022-12-03T23:49:32.061Z,0.90
2022-12-03T23:52:02.283Z,0.90
2022-12-03T23:54:38.925Z,0.90
2022-12-03T23:57:08.889Z,0.90
2022-12-03T23:59:39.530Z,0.90
